createdAt,value
2019-03-11T00:00:13.106Z,87.65
2019-03-11T00:02:41.603Z,86.99
2019-03-11T00:05:10.105Z,87.32
2019-03-11T00:07:38.619Z,88.05
2019-03-11T00:10:08.566Z,88.27
2019-03-11T00:12:37.066Z,86.95
2019-03-11T00:15:08.151Z,86.94
2019-03-11T00:17:36.619Z,86.61
2019-03-11T00:20:06.999Z,85.39
2019-03-11T00:22:35.452Z,84.81
2019-03-11T00:25:04.252Z,85.18
2019-03-11T00:27:32.652Z,85.01
2019-03-11T00:30:01.185Z,84.77
2019-03-11T00:32:29.665Z,84.23
2019-03-11T00:34:58.102Z,83.61
2019-03-11T00:37:26.598Z,82.45
2019-03-11T00:39:55.007Z,81.59
2019-03-11T00:42:23.423Z,81.44
2019-03-11T00:44:51.860Z,82.43
2019-03-11T00:47:20.279Z,82.29
2019-03-11T00:49:48.710Z,83.13
2019-03-11T00:52:17.125Z,83.87
2019-03-11T00:54:45.520Z,84.07
2019-03-11T00:57:14.026Z,84.18
2019-03-11T00:59:42.440Z,85.09
2019-03-11T01:02:11.074Z,85.99
2019-03-11T01:04:39.486Z,86.46
2019-03-11T01:07:07.950Z,86.95
2019-03-11T01:09:36.370Z,87.20
2019-03-11T01:12:04.869Z,88.30
2019-03-11T01:14:35.741Z,88.43
2019-03-11T01:17:03.430Z,88.67
2019-03-11T01:19:31.812Z,88.54
2019-03-11T01:22:00.212Z,89.24
2019-03-11T01:24:28.638Z,89.47
2019-03-11T01:26:57.042Z,89.79
2019-03-11T01:29:25.443Z,89.85
2019-03-11T01:31:53.847Z,89.77
2019-03-11T01:34:22.252Z,89.35
2019-03-11T01:36:50.669Z,89.26
2019-03-11T01:39:19.074Z,88.39
2019-03-11T01:41:47.499Z,87.46
2019-03-11T01:44:15.920Z,87.69
2019-03-11T01:46:44.318Z,88.31
2019-03-11T01:49:12.725Z,88.14
2019-03-11T01:51:41.159Z,87.70
2019-03-11T01:54:09.557Z,87.92
2019-03-11T01:56:37.967Z,87.86
2019-03-11T01:59:06.402Z,88.36
2019-03-11T02:01:34.810Z,88.42
2019-03-11T02:04:03.207Z,87.31
2019-03-11T02:06:31.638Z,87.33
2019-03-11T02:09:00.121Z,87.59
2019-03-11T02:11:28.521Z,87.63
2019-03-11T02:13:56.975Z,87.28
2019-03-11T02:16:25.400Z,87.08
2019-03-11T02:18:53.795Z,86.93
2019-03-11T02:21:22.223Z,86.69
2019-03-11T02:23:50.631Z,87.01
2019-03-11T02:26:19.030Z,86.53
2019-03-11T02:28:47.543Z,86.78
2019-03-11T02:31:15.945Z,86.48
2019-03-11T02:33:44.340Z,85.94
2019-03-11T02:36:12.905Z,86.20
2019-03-11T02:38:41.311Z,86.81
2019-03-11T02:41:09.705Z,86.97
2019-03-11T02:43:38.137Z,86.84
2019-03-11T02:46:06.514Z,86.48
2019-03-11T02:48:34.995Z,86.47
2019-03-11T02:51:03.484Z,86.55
2019-03-11T02:53:31.895Z,87.25
2019-03-11T02:56:00.314Z,87.11
2019-03-11T02:58:28.749Z,87.48
2019-03-11T03:00:58.854Z,87.60
2019-03-11T03:03:41.158Z,87.48
2019-03-11T03:06:14.265Z,88.25
2019-03-11T03:08:42.664Z,88.39
2019-03-11T03:11:11.123Z,88.47
2019-03-11T03:13:39.527Z,88.34
2019-03-11T03:16:07.950Z,88.12
2019-03-11T03:18:36.422Z,87.76
2019-03-11T03:21:04.910Z,87.61
2019-03-11T03:23:33.318Z,87.86
2019-03-11T03:26:01.727Z,87.52
2019-03-11T03:28:30.165Z,87.18
2019-03-11T03:30:58.622Z,88.11
2019-03-11T03:33:27.090Z,87.66
2019-03-11T03:35:55.475Z,88.00
2019-03-11T03:38:30.545Z,88.19
2019-03-11T03:40:54.049Z,88.22
2019-03-11T03:43:22.479Z,88.20
2019-03-11T03:45:50.865Z,87.87
2019-03-11T03:48:19.462Z,87.21
2019-03-11T03:50:47.889Z,87.31
2019-03-11T03:53:16.380Z,87.19
2019-03-11T03:55:44.771Z,87.08
2019-03-11T03:58:13.248Z,87.06
2019-03-11T04:00:41.650Z,87.01
2019-03-11T04:03:10.104Z,87.07
2019-03-11T04:05:38.506Z,86.71
2019-03-11T04:08:06.872Z,86.50
2019-03-11T04:10:35.346Z,86.62
2019-03-11T04:13:03.896Z,86.47
2019-03-11T04:15:32.303Z,86.12
2019-03-11T04:18:00.715Z,85.28
2019-03-11T04:20:29.316Z,85.25
2019-03-11T04:22:59.071Z,85.10
2019-03-11T04:25:28.996Z,84.26
2019-03-11T04:27:57.789Z,83.60
2019-03-11T04:30:27.541Z,83.69
2019-03-11T04:32:55.945Z,83.82
2019-03-11T04:35:24.394Z,83.85
2019-03-11T04:37:52.776Z,82.96
2019-03-11T04:40:21.285Z,83.13
2019-03-11T04:42:49.698Z,83.74
2019-03-11T04:45:18.591Z,83.93
2019-03-11T04:47:47.127Z,84.05
2019-03-11T04:50:20.464Z,84.77
2019-03-11T04:52:49.019Z,84.30
2019-03-11T04:55:17.979Z,84.36
2019-03-11T04:57:54.387Z,85.21
2019-03-11T05:00:30.664Z,86.23
2019-03-11T05:02:59.217Z,88.20
2019-03-11T05:05:27.754Z,89.23
2019-03-11T05:07:56.152Z,89.37
2019-03-11T05:10:24.563Z,90.32
2019-03-11T05:12:53.032Z,90.37
2019-03-11T05:15:21.529Z,90.11
2019-03-11T05:17:49.920Z,90.33
2019-03-11T05:20:18.564Z,90.13
2019-03-11T05:22:47.126Z,89.75
2019-03-11T05:25:15.845Z,90.08
2019-03-11T05:27:44.422Z,90.20
2019-03-11T05:30:17.725Z,90.25
2019-03-11T05:32:46.188Z,89.86
2019-03-11T05:35:14.678Z,89.89
2019-03-11T05:37:43.113Z,89.42
2019-03-11T05:40:19.638Z,89.37
2019-03-11T05:42:48.167Z,88.88
2019-03-11T05:45:20.617Z,88.63
2019-03-11T05:47:49.187Z,88.72
2019-03-11T05:50:20.356Z,87.83
2019-03-11T05:52:48.841Z,87.66
2019-03-11T05:55:17.439Z,86.73
2019-03-11T05:57:45.857Z,87.22
2019-03-11T06:00:23.436Z,86.42
2019-03-11T06:02:51.863Z,86.61
2019-03-11T06:05:20.268Z,86.64
2019-03-11T06:07:48.761Z,86.61
2019-03-11T06:10:17.294Z,86.62
2019-03-11T06:12:45.770Z,87.15
2019-03-11T06:15:15.336Z,87.51
2019-03-11T06:17:43.922Z,87.71
2019-03-11T06:20:18.116Z,88.42
2019-03-11T06:22:46.518Z,88.67
2019-03-11T06:25:15.828Z,89.36
2019-03-11T06:27:44.241Z,89.70
2019-03-11T06:30:12.944Z,89.82
2019-03-11T06:32:41.404Z,90.30
2019-03-11T06:35:10.069Z,90.26
2019-03-11T06:37:38.511Z,90.71
2019-03-11T06:40:09.519Z,91.08
2019-03-11T06:42:38.044Z,91.88
2019-03-11T06:45:14.039Z,92.67
2019-03-11T06:47:42.560Z,92.95
2019-03-11T06:50:13.068Z,93.92
2019-03-11T06:52:41.624Z,94.62
2019-03-11T06:55:11.499Z,95.11
2019-03-11T06:57:40.056Z,95.66
2019-03-11T07:00:16.544Z,95.87
2019-03-11T07:02:45.400Z,96.13
2019-03-11T07:05:19.774Z,96.25
2019-03-11T07:07:44.178Z,96.37
2019-03-11T07:10:16.506Z,96.34
2019-03-11T07:12:45.120Z,96.77
2019-03-11T07:15:14.972Z,96.88
2019-03-11T07:17:43.453Z,96.84
2019-03-11T07:20:19.330Z,97.04
2019-03-11T07:22:47.816Z,97.20
2019-03-11T07:25:16.300Z,97.37
2019-03-11T07:27:44.705Z,97.34
2019-03-11T07:30:18.137Z,97.53
2019-03-11T07:32:46.711Z,97.03
2019-03-11T07:35:15.268Z,97.40
2019-03-11T07:37:43.752Z,97.25
2019-03-11T07:40:16.088Z,97.19
2019-03-11T07:42:44.641Z,97.11
2019-03-11T07:45:14.703Z,97.01
2019-03-11T07:47:43.263Z,96.56
2019-03-11T07:50:13.122Z,96.48
2019-03-11T07:52:41.542Z,96.32
2019-03-11T07:55:11.400Z,95.97
2019-03-11T07:57:39.799Z,95.94
2019-03-11T08:00:14.008Z,96.02
2019-03-11T08:02:42.408Z,95.63
2019-03-11T08:05:11.046Z,95.50
2019-03-11T08:07:39.553Z,94.95
2019-03-11T08:10:13.175Z,95.15
2019-03-11T08:12:41.569Z,94.92
2019-03-11T08:15:12.949Z,95.34
2019-03-11T08:17:41.551Z,95.82
2019-03-11T08:20:11.910Z,96.20
2019-03-11T08:22:40.408Z,96.50
2019-03-11T08:25:15.738Z,96.45
2019-03-11T08:27:44.287Z,96.74
2019-03-11T08:30:17.635Z,96.54
2019-03-11T08:32:46.254Z,96.57
2019-03-11T08:35:14.701Z,96.34
2019-03-11T08:37:43.162Z,96.66
2019-03-11T08:40:19.053Z,96.73
2019-03-11T08:42:47.709Z,96.18
2019-03-11T08:45:17.390Z,96.53
2019-03-11T08:47:45.951Z,96.39
2019-03-11T08:50:16.258Z,96.17
2019-03-11T08:52:44.810Z,95.82
2019-03-11T08:55:13.781Z,95.65
2019-03-11T08:57:42.335Z,95.57
2019-03-11T09:00:16.756Z,95.17
2019-03-11T09:02:45.222Z,94.99
2019-03-11T09:05:13.769Z,94.21
2019-03-11T09:07:42.264Z,94.43
2019-03-11T09:10:15.676Z,94.53
2019-03-11T09:12:44.271Z,94.45
2019-03-11T09:15:14.614Z,94.21
2019-03-11T09:17:43.108Z,93.96
2019-03-11T09:20:15.450Z,94.21
2019-03-11T09:22:43.981Z,94.42
2019-03-11T09:25:15.439Z,94.52
2019-03-11T09:27:43.955Z,94.73
2019-03-11T09:30:15.176Z,94.62
2019-03-11T09:32:43.659Z,94.64
2019-03-11T09:35:12.635Z,93.97
2019-03-11T09:37:41.112Z,94.01
2019-03-11T09:40:20.730Z,94.00
2019-03-11T09:42:49.203Z,93.09
2019-03-11T09:45:18.750Z,93.76
2019-03-11T09:47:47.399Z,92.96
2019-03-11T09:50:16.429Z,93.31
2019-03-11T09:52:45.023Z,93.36
2019-03-11T09:55:15.520Z,92.64
2019-03-11T09:57:44.051Z,92.87
2019-03-11T10:00:20.851Z,92.52
2019-03-11T10:02:52.775Z,92.48
2019-03-11T10:05:19.558Z,92.54
2019-03-11T10:07:47.992Z,92.23
2019-03-11T10:10:18.334Z,92.49
2019-03-11T10:12:46.810Z,91.42
2019-03-11T10:15:17.374Z,90.85
2019-03-11T10:17:48.698Z,90.06
2019-03-11T10:20:18.030Z,89.61
2019-03-11T10:22:46.672Z,89.67
2019-03-11T10:25:16.533Z,89.01
2019-03-11T10:27:45.189Z,89.90
2019-03-11T10:30:16.412Z,89.07
2019-03-11T10:32:44.889Z,89.49
2019-03-11T10:35:30.678Z,89.39
2019-03-11T10:37:46.516Z,88.06
2019-03-11T10:40:17.511Z,88.39
2019-03-11T10:42:46.053Z,85.50
2019-03-11T10:45:15.847Z,87.15
2019-03-11T10:47:44.289Z,85.52
2019-03-11T10:50:15.284Z,83.90
2019-03-11T10:52:43.810Z,82.80
2019-03-11T10:55:14.694Z,81.02
2019-03-11T10:57:43.341Z,81.65
2019-03-11T11:00:21.343Z,81.07
2019-03-11T11:02:49.877Z,78.57
2019-03-11T11:05:18.410Z,80.04
2019-03-11T11:07:46.845Z,79.92
2019-03-11T11:10:16.488Z,78.33
2019-03-11T11:12:44.977Z,78.05
2019-03-11T11:15:32.680Z,79.36
2019-03-11T11:18:01.168Z,79.07
2019-03-11T11:20:29.652Z,78.95
2019-03-11T11:22:58.113Z,78.41
2019-03-11T11:25:30.427Z,78.40
2019-03-11T11:27:58.969Z,78.74
2019-03-11T11:30:28.885Z,78.88
2019-03-11T11:32:57.371Z,77.76
2019-03-11T11:35:25.900Z,78.64
2019-03-11T11:37:54.459Z,78.46
2019-03-11T11:40:30.339Z,76.91
2019-03-11T11:42:58.769Z,76.76
2019-03-11T11:45:31.428Z,77.04
2019-03-11T11:47:59.924Z,76.91
2019-03-11T11:50:28.586Z,77.71
2019-03-11T11:52:56.983Z,77.33
2019-03-11T11:55:25.555Z,75.68
2019-03-11T11:57:54.148Z,74.42
2019-03-11T12:00:25.854Z,74.02
2019-03-11T12:02:54.398Z,73.37
2019-03-11T12:05:22.959Z,73.19
2019-03-11T12:07:51.798Z,70.73
2019-03-11T12:10:25.977Z,69.94
2019-03-11T12:12:54.476Z,66.90
2019-03-11T12:15:22.986Z,66.63
2019-03-11T12:17:51.527Z,68.37
2019-03-11T12:20:22.643Z,68.65
2019-03-11T12:22:51.312Z,67.81
2019-03-11T12:25:19.777Z,66.54
2019-03-11T12:27:53.739Z,67.50
2019-03-11T12:30:31.938Z,67.50
2019-03-11T12:33:00.444Z,68.58
2019-03-11T12:35:29.003Z,71.35
2019-03-11T12:37:57.739Z,69.36
2019-03-11T12:40:26.439Z,70.01
2019-03-11T12:42:55.279Z,69.11
2019-03-11T12:45:25.663Z,70.41
2019-03-11T12:47:54.268Z,69.31
2019-03-11T12:50:25.722Z,69.08
2019-03-11T12:52:54.171Z,69.99
2019-03-11T12:55:22.619Z,69.33
2019-03-11T12:57:51.198Z,70.54
2019-03-11T13:00:20.740Z,69.40
2019-03-11T13:02:49.409Z,68.96
2019-03-11T13:05:18.141Z,68.15
2019-03-11T13:07:47.140Z,68.82
2019-03-11T13:10:25.984Z,68.75
2019-03-11T13:12:54.475Z,67.97
2019-03-11T13:15:23.033Z,67.47
2019-03-11T13:17:51.561Z,71.18
2019-03-11T13:20:29.168Z,73.49
2019-03-11T13:22:57.635Z,71.66
2019-03-11T13:25:26.052Z,68.34
2019-03-11T13:27:54.519Z,69.66
2019-03-11T13:30:23.080Z,68.01
2019-03-11T13:32:51.546Z,68.25
2019-03-11T13:35:19.986Z,69.87
2019-03-11T13:37:48.514Z,69.26
2019-03-11T13:40:17.378Z,69.73
2019-03-11T13:42:45.878Z,70.88
2019-03-11T13:45:16.542Z,70.16
2019-03-11T13:47:45.041Z,70.48
2019-03-11T13:50:15.173Z,70.29
2019-03-11T13:52:43.798Z,69.05
2019-03-11T13:55:18.394Z,66.85
2019-03-11T13:57:46.946Z,66.64
2019-03-11T14:00:18.326Z,62.93
2019-03-11T14:02:46.991Z,63.84
2019-03-11T14:05:15.556Z,65.21
2019-03-11T14:07:44.065Z,63.57
2019-03-11T14:10:13.787Z,62.74
2019-03-11T14:12:42.278Z,62.02
2019-03-11T14:15:16.620Z,63.09
2019-03-11T14:17:45.169Z,63.00
2019-03-11T14:20:14.920Z,63.49
2019-03-11T14:22:43.727Z,63.11
2019-03-11T14:25:13.208Z,64.31
2019-03-11T14:27:41.675Z,64.64
2019-03-11T14:30:14.802Z,64.42
2019-03-11T14:32:43.207Z,65.15
2019-03-11T14:35:12.669Z,65.01
2019-03-11T14:37:41.227Z,65.55
2019-03-11T14:40:12.398Z,64.60
2019-03-11T14:42:40.821Z,65.24
2019-03-11T14:45:23.043Z,65.29
2019-03-11T14:47:51.510Z,64.50
2019-03-11T14:50:20.059Z,64.62
2019-03-11T14:52:48.643Z,64.86
2019-03-11T14:55:17.222Z,64.59
2019-03-11T14:57:45.720Z,63.89
2019-03-11T15:00:18.817Z,64.72
2019-03-11T15:02:47.404Z,65.27
2019-03-11T15:05:17.886Z,65.99
2019-03-11T15:07:47.007Z,65.56
2019-03-11T15:10:16.851Z,66.17
2019-03-11T15:12:45.378Z,66.75
2019-03-11T15:15:16.188Z,67.14
2019-03-11T15:17:44.776Z,65.60
2019-03-11T15:20:14.627Z,65.33
2019-03-11T15:22:43.221Z,65.82
2019-03-11T15:25:13.408Z,65.54
2019-03-11T15:27:42.471Z,64.91
2019-03-11T15:30:18.903Z,65.79
2019-03-11T15:32:47.488Z,65.55
2019-03-11T15:35:16.082Z,67.13
2019-03-11T15:37:44.568Z,72.65
2019-03-11T15:40:14.601Z,75.93
2019-03-11T15:42:43.247Z,78.26
2019-03-11T15:45:16.462Z,79.43
2019-03-11T15:47:45.022Z,77.59
2019-03-11T15:50:19.459Z,78.50
2019-03-11T15:52:47.974Z,77.71
2019-03-11T15:55:17.544Z,76.66
2019-03-11T15:57:46.032Z,75.60
2019-03-11T16:00:20.239Z,75.09
2019-03-11T16:02:48.741Z,75.37
2019-03-11T16:05:19.977Z,75.63
2019-03-11T16:07:48.958Z,74.88
2019-03-11T16:10:17.631Z,73.51
2019-03-11T16:12:46.181Z,71.14
2019-03-11T16:15:15.624Z,70.93
2019-03-11T16:17:44.212Z,69.79
2019-03-11T16:20:15.674Z,68.32
2019-03-11T16:22:44.238Z,67.83
2019-03-11T16:25:12.811Z,66.96
2019-03-11T16:27:41.237Z,65.83
2019-03-11T16:30:12.711Z,65.61
2019-03-11T16:32:57.256Z,65.43
2019-03-11T16:35:11.427Z,66.73
2019-03-11T16:37:39.891Z,67.17
2019-03-11T16:40:11.296Z,66.72
2019-03-11T16:42:39.722Z,68.09
2019-03-11T16:45:13.334Z,66.76
2019-03-11T16:47:41.898Z,67.55
2019-03-11T16:50:23.943Z,66.71
2019-03-11T16:52:52.709Z,67.90
2019-03-11T16:55:40.337Z,66.57
2019-03-11T16:58:08.771Z,66.05
2019-03-11T17:00:39.072Z,66.23
2019-03-11T17:03:07.836Z,65.66
2019-03-11T17:05:36.318Z,65.82
2019-03-11T17:08:04.987Z,65.74
2019-03-11T17:10:33.584Z,66.25
2019-03-11T17:13:02.139Z,66.73
2019-03-11T17:15:30.682Z,68.59
2019-03-11T17:17:59.149Z,71.05
2019-03-11T17:20:27.586Z,71.71
2019-03-11T17:22:56.119Z,71.65
2019-03-11T17:25:24.631Z,70.11
2019-03-11T17:27:53.191Z,72.71
2019-03-11T17:30:26.038Z,71.37
2019-03-11T17:32:54.648Z,70.72
2019-03-11T17:35:23.128Z,70.85
2019-03-11T17:37:51.627Z,70.57
2019-03-11T17:40:21.470Z,72.75
2019-03-11T17:42:50.303Z,70.43
2019-03-11T17:45:19.086Z,70.75
2019-03-11T17:47:47.665Z,70.12
2019-03-11T17:50:18.274Z,69.80
2019-03-11T17:52:47.016Z,69.96
2019-03-11T17:55:17.631Z,69.77
2019-03-11T17:57:46.375Z,70.03
2019-03-11T18:00:19.580Z,69.60
2019-03-11T18:02:48.100Z,70.06
2019-03-11T18:05:17.223Z,70.75
2019-03-11T18:07:45.756Z,70.66
2019-03-11T18:10:14.410Z,70.77
2019-03-11T18:12:42.849Z,71.10
2019-03-11T18:15:13.120Z,70.69
2019-03-11T18:17:41.727Z,71.72
2019-03-11T18:20:18.230Z,70.89
2019-03-11T18:22:46.872Z,72.25
2019-03-11T18:25:17.732Z,71.71
2019-03-11T18:27:46.239Z,71.53
2019-03-11T18:30:23.181Z,71.22
2019-03-11T18:32:51.724Z,70.35
2019-03-11T18:35:20.262Z,71.13
2019-03-11T18:37:48.698Z,71.91
2019-03-11T18:40:18.405Z,71.24
2019-03-11T18:42:47.048Z,71.54
2019-03-11T18:45:16.496Z,71.01
2019-03-11T18:47:45.054Z,70.46
2019-03-11T18:50:21.913Z,70.50
2019-03-11T18:52:50.490Z,70.76
2019-03-11T18:55:19.066Z,70.93
2019-03-11T18:57:47.696Z,70.61
2019-03-11T19:00:21.450Z,71.40
2019-03-11T19:02:50.069Z,73.37
2019-03-11T19:05:20.054Z,76.09
2019-03-11T19:07:48.528Z,79.36
2019-03-11T19:10:17.305Z,80.44
2019-03-11T19:12:45.838Z,80.57
2019-03-11T19:15:19.536Z,81.47
2019-03-11T19:17:48.125Z,81.36
2019-03-11T19:20:19.062Z,81.72
2019-03-11T19:22:47.697Z,81.87
2019-03-11T19:25:16.495Z,82.06
2019-03-11T19:27:45.042Z,80.98
2019-03-11T19:30:16.459Z,82.17
2019-03-11T19:32:44.947Z,82.07
2019-03-11T19:35:13.514Z,81.91
2019-03-11T19:37:42.008Z,82.09
2019-03-11T19:40:13.028Z,81.38
2019-03-11T19:42:41.621Z,80.19
2019-03-11T19:45:12.057Z,78.27
2019-03-11T19:47:40.602Z,79.02
2019-03-11T19:50:11.670Z,79.04
2019-03-11T19:52:40.289Z,77.43
2019-03-11T19:55:08.916Z,76.50
2019-03-11T19:57:37.342Z,76.81
2019-03-11T20:00:08.814Z,75.99
2019-03-11T20:02:37.251Z,76.09
2019-03-11T20:05:08.527Z,76.24
2019-03-11T20:07:37.073Z,75.54
2019-03-11T20:10:08.213Z,76.41
2019-03-11T20:12:36.708Z,76.14
2019-03-11T20:15:08.357Z,76.39
2019-03-11T20:17:37.088Z,76.75
2019-03-11T20:20:14.198Z,76.56
2019-03-11T20:22:42.725Z,76.51
2019-03-11T20:25:26.097Z,76.87
2019-03-11T20:27:54.656Z,76.43
2019-03-11T20:30:24.147Z,76.24
2019-03-11T20:32:52.713Z,76.29
2019-03-11T20:35:21.256Z,76.13
2019-03-11T20:37:49.833Z,77.00
2019-03-11T20:40:18.459Z,76.75
2019-03-11T20:42:47.049Z,77.10
2019-03-11T20:45:17.926Z,77.30
2019-03-11T20:47:46.455Z,76.93
2019-03-11T20:50:16.100Z,76.98
2019-03-11T20:52:44.642Z,77.45
2019-03-11T20:55:14.848Z,77.69
2019-03-11T20:57:43.388Z,77.54
2019-03-11T21:00:25.812Z,77.69
2019-03-11T21:02:54.477Z,77.25
2019-03-11T21:05:31.434Z,77.35
2019-03-11T21:07:59.866Z,77.67
2019-03-11T21:10:28.388Z,78.20
2019-03-11T21:12:56.892Z,78.06
2019-03-11T21:15:25.561Z,78.82
2019-03-11T21:17:53.978Z,78.14
2019-03-11T21:20:22.459Z,78.27
2019-03-11T21:22:50.909Z,78.37
2019-03-11T21:25:22.531Z,79.26
2019-03-11T21:27:51.207Z,79.00
2019-03-11T21:30:24.973Z,78.68
2019-03-11T21:32:53.657Z,79.48
2019-03-11T21:35:22.356Z,79.31
2019-03-11T21:37:51.032Z,79.25
2019-03-11T21:40:23.648Z,79.32
2019-03-11T21:42:52.357Z,79.81
2019-03-11T21:45:32.911Z,79.45
2019-03-11T21:47:51.387Z,79.93
2019-03-11T21:50:24.094Z,79.39
2019-03-11T21:52:52.618Z,79.13
2019-03-11T21:55:21.124Z,79.32
2019-03-11T21:57:49.618Z,80.35
2019-03-11T22:00:32.915Z,79.96
2019-03-11T22:02:52.756Z,79.80
2019-03-11T22:05:21.499Z,79.41
2019-03-11T22:07:49.938Z,79.71
2019-03-11T22:10:18.877Z,79.13
2019-03-11T22:12:47.355Z,79.98
2019-03-11T22:15:21.446Z,79.92
2019-03-11T22:17:49.867Z,79.16
2019-03-11T22:20:18.739Z,79.25
2019-03-11T22:22:47.252Z,79.47
2019-03-11T22:25:16.876Z,80.07
2019-03-11T22:27:45.346Z,80.39
2019-03-11T22:30:24.361Z,80.13
2019-03-11T22:32:53.049Z,80.52
2019-03-11T22:35:21.517Z,81.02
2019-03-11T22:37:51.797Z,81.13
2019-03-11T22:40:20.665Z,82.15
2019-03-11T22:42:49.131Z,82.72
2019-03-11T22:45:23.396Z,82.62
2019-03-11T22:47:52.468Z,82.47
2019-03-11T22:50:21.405Z,81.79
2019-03-11T22:52:50.141Z,82.31
2019-03-11T22:55:19.958Z,82.95
2019-03-11T22:57:48.867Z,83.47
2019-03-11T23:00:26.669Z,83.98
2019-03-11T23:02:55.192Z,82.92
2019-03-11T23:05:23.680Z,83.14
2019-03-11T23:07:52.090Z,83.65
2019-03-11T23:10:20.501Z,84.27
2019-03-11T23:12:48.918Z,84.89
2019-03-11T23:15:17.342Z,85.47
2019-03-11T23:17:45.744Z,86.01
2019-03-11T23:20:14.532Z,86.32
2019-03-11T23:22:42.951Z,86.89
2019-03-11T23:25:11.439Z,86.87
2019-03-11T23:27:39.857Z,86.93
2019-03-11T23:30:15.277Z,87.45
2019-03-11T23:32:43.687Z,87.50
2019-03-11T23:35:12.339Z,87.98
2019-03-11T23:37:40.753Z,87.85
2019-03-11T23:40:10.139Z,87.72
2019-03-11T23:42:38.784Z,87.80
2019-03-11T23:45:09.450Z,87.76
2019-03-11T23:47:37.955Z,87.91
2019-03-11T23:50:11.480Z,87.98
2019-03-11T23:52:39.961Z,88.29
2019-03-11T23:55:10.307Z,88.74
2019-03-11T23:57:38.806Z,88.62
